Time;durP1;ratioP1;P1;durP2;ratioP2;P2;SDS_P1;SDS_P2;PMS_P1;PMS_P2;Temp;Humidity;BMP_temperature;BMP_pressure;BME280_temperature;BME280_humidity;BME280_pressure;Samples;Min_cycle;Max_cycle;Signal;HPM_P1;HPM_P2
2023/12/29 00:00:44;;;;;;;2.92;2.70;;;8.80;1.00;;;;;;7380815;19;20074;-72
2023/12/29 00:03:14;;;;;;;3.33;2.90;;;8.80;1.00;;;;;;7375020;19;21771;-71
2023/12/29 00:05:45;;;;;;;3.63;3.00;;;8.80;1.00;;;;;;7374517;19;20466;-71
2023/12/29 00:08:17;;;;;;;3.58;2.85;;;8.70;1.00;;;;;;7369140;19;20051;-71
2023/12/29 00:10:47;;;;;;;4.43;2.65;;;8.70;1.00;;;;;;7367415;19;20094;-71
2023/12/29 00:13:22;;;;;;;2.88;2.33;;;8.70;1.00;;;;;;7366411;19;20734;-71
2023/12/29 00:15:55;;;;;;;4.70;2.88;;;8.70;1.00;;;;;;7368664;19;20090;-71
2023/12/29 00:18:25;;;;;;;3.20;2.80;;;8.70;1.00;;;;;;7368233;19;20022;-71
2023/12/29 00:20:55;;;;;;;3.47;2.80;;;8.80;1.00;;;;;;7367358;19;20094;-71
2023/12/29 00:23:39;;;;;;;3.17;2.88;;;8.80;1.00;;;;;;7363678;19;20006;-70
2023/12/29 00:26:09;;;;;;;3.33;2.80;;;8.80;1.00;;;;;;7367872;19;20059;-71
2023/12/29 00:28:41;;;;;;;3.80;3.30;;;8.90;1.00;;;;;;7364173;19;20510;-71
2023/12/29 00:31:12;;;;;;;3.70;2.70;;;8.90;1.00;;;;;;7366953;19;20019;-70
2023/12/29 00:33:42;;;;;;;4.07;3.30;;;9.00;1.00;;;;;;7363035;19;20053;-71
2023/12/29 00:36:17;;;;;;;3.40;2.90;;;9.00;1.00;;;;;;7364638;19;20006;-72
2023/12/29 00:38:50;;;;;;;3.83;3.05;;;9.00;1.00;;;;;;7375948;19;20540;-71
2023/12/29 00:41:20;;;;;;;4.18;3.15;;;9.10;1.00;;;;;;7377082;19;20010;-71
2023/12/29 00:43:50;;;;;;;3.45;3.00;;;9.20;1.00;;;;;;7378209;19;20106;-71
2023/12/29 00:46:21;;;;;;;3.40;3.10;;;9.10;1.00;;;;;;7377332;19;20002;-71
2023/12/29 00:48:51;;;;;;;3.28;2.97;;;9.20;1.00;;;;;;7376304;19;19995;-70
2023/12/29 00:51:21;;;;;;;3.65;2.88;;;9.20;1.00;;;;;;7378139;19;20010;-70
2023/12/29 00:53:54;;;;;;;3.55;3.15;;;9.20;1.00;;;;;;7377847;19;20089;-71
2023/12/29 00:56:24;;;;;;;3.15;2.75;;;9.30;1.00;;;;;;7376378;19;20002;-71
2023/12/29 00:58:54;;;;;;;5.15;2.97;;;9.30;1.00;;;;;;7378065;19;20014;-71
2023/12/29 01:01:24;;;;;;;5.13;3.30;;;9.20;1.00;;;;;;7378238;19;20036;-71
2023/12/29 01:03:55;;;;;;;3.42;3.10;;;9.20;1.00;;;;;;7378014;19;20014;-71
2023/12/29 01:06:26;;;;;;;3.75;3.10;;;9.20;1.00;;;;;;7380035;19;20016;-70
2023/12/29 01:08:59;;;;;;;3.13;2.83;;;9.20;1.00;;;;;;7373817;19;20010;-71
2023/12/29 01:11:29;;;;;;;4.53;3.88;;;9.20;1.00;;;;;;7376102;19;20101;-73
2023/12/29 01:13:59;;;;;;;3.78;3.42;;;9.20;1.00;;;;;;7377771;19;20017;-72
2023/12/29 01:16:29;;;;;;;4.10;3.30;;;9.20;1.00;;;;;;7377437;19;20010;-72
2023/12/29 01:18:59;;;;;;;4.15;3.20;;;9.20;1.00;;;;;;7376327;19;20011;-72
2023/12/29 01:21:33;;;;;;;4.53;3.10;;;9.20;1.00;;;;;;7377069;19;20028;-71
2023/12/29 01:24:07;;;;;;;3.70;3.10;;;9.30;1.00;;;;;;7377368;19;20529;-71
2023/12/29 01:26:39;;;;;;;4.50;3.08;;;9.20;1.00;;;;;;7377131;19;20045;-71
2023/12/29 01:29:10;;;;;;;4.05;2.95;;;9.30;1.00;;;;;;7376895;19;20006;-71
2023/12/29 01:31:40;;;;;;;3.65;3.10;;;9.30;1.00;;;;;;7376370;19;20070;-71
2023/12/29 01:34:10;;;;;;;3.17;2.78;;;9.40;1.00;;;;;;7376894;19;20006;-70
2023/12/29 01:36:40;;;;;;;5.57;3.17;;;9.40;1.00;;;;;;7378800;19;20010;-70
2023/12/29 01:39:13;;;;;;;6.85;3.10;;;9.40;1.00;;;;;;7375755;19;20010;-71
2023/12/29 01:41:43;;;;;;;5.00;2.95;;;9.50;1.00;;;;;;7377459;19;20006;-71
2023/12/29 01:44:22;;;;;;;5.25;3.20;;;9.50;1.00;;;;;;7376433;19;20034;-70
2023/12/29 01:46:51;;;;;;;3.70;2.97;;;9.50;1.00;;;;;;7375719;19;20013;-70
2023/12/29 01:49:23;;;;;;;4.00;3.35;;;9.40;1.00;;;;;;7378245;19;20009;-71
2023/12/29 01:51:56;;;;;;;6.07;3.33;;;9.50;1.00;;;;;;7379906;19;20010;-71
2023/12/29 01:54:34;;;;;;;6.60;3.05;;;9.40;1.00;;;;;;7378746;19;20031;-70
2023/12/29 01:57:05;;;;;;;5.60;3.42;;;9.50;1.00;;;;;;7373715;19;20097;-70
2023/12/29 01:59:38;;;;;;;3.40;3.10;;;9.50;1.00;;;;;;7379072;19;20006;-70
2023/12/29 02:02:08;;;;;;;3.28;2.92;;;9.60;1.00;;;;;;7376175;19;20017;-71
2023/12/29 02:04:39;;;;;;;4.20;2.80;;;9.60;1.00;;;;;;7376017;19;20030;-71
2023/12/29 02:07:10;;;;;;;3.78;3.15;;;9.50;1.00;;;;;;7376617;19;20014;-71
2023/12/29 02:09:43;;;;;;;5.00;3.30;;;9.50;1.00;;;;;;7375365;19;20013;-71
2023/12/29 02:12:14;;;;;;;3.40;3.10;;;9.60;1.00;;;;;;7377383;19;20015;-71
2023/12/29 02:14:44;;;;;;;4.30;3.20;;;9.60;1.00;;;;;;7376461;19;20014;-70
2023/12/29 02:17:24;;;;;;;4.03;3.30;;;9.60;1.00;;;;;;7376619;19;20078;-71
2023/12/29 02:19:55;;;;;;;3.25;2.70;;;9.70;1.00;;;;;;7376635;19;20007;-71
2023/12/29 02:22:26;;;;;;;4.20;3.08;;;9.70;1.00;;;;;;7375653;19;20014;-70
2023/12/29 02:24:59;;;;;;;5.68;3.72;;;9.70;1.00;;;;;;7377425;19;20040;-70
2023/12/29 02:27:41;;;;;;;3.95;3.13;;;9.70;1.00;;;;;;7375555;19;20014;-70
2023/12/29 02:30:14;;;;;;;3.83;3.13;;;9.70;1.00;;;;;;6864746;19;2004753;-71
2023/12/29 02:32:47;;;;;;;5.10;3.45;;;9.70;1.00;;;;;;7376447;19;20010;-71
2023/12/29 02:35:22;;;;;;;7.97;3.28;;;9.70;1.00;;;;;;7375174;19;20011;-71
2023/12/29 02:37:52;;;;;;;4.40;3.53;;;9.70;1.00;;;;;;7374614;19;20007;-71
2023/12/29 02:40:26;;;;;;;3.20;2.90;;;9.70;1.00;;;;;;7375171;19;20436;-71
2023/12/29 02:42:56;;;;;;;4.80;3.17;;;9.80;1.00;;;;;;7375616;19;20056;-71
2023/12/29 02:45:26;;;;;;;3.88;2.92;;;9.80;1.00;;;;;;7375782;19;20420;-71
2023/12/29 02:47:57;;;;;;;3.33;2.90;;;9.80;1.00;;;;;;7373254;19;20007;-71
2023/12/29 02:50:28;;;;;;;3.40;3.05;;;9.80;1.00;;;;;;7374986;19;20057;-71
2023/12/29 02:52:58;;;;;;;5.60;3.25;;;9.80;1.00;;;;;;7375952;19;20066;-72
2023/12/29 02:55:31;;;;;;;3.33;2.80;;;9.80;1.00;;;;;;7373426;19;20014;-71
2023/12/29 02:58:01;;;;;;;5.85;3.15;;;9.80;1.00;;;;;;7375172;19;20333;-71
2023/12/29 03:00:31;;;;;;;3.90;3.08;;;9.80;1.00;;;;;;7375338;19;20097;-71
2023/12/29 03:03:02;;;;;;;4.90;3.25;;;9.80;1.00;;;;;;7375935;19;20086;-71
2023/12/29 03:05:32;;;;;;;4.03;3.50;;;9.80;1.00;;;;;;7375581;19;20010;-71
2023/12/29 03:08:02;;;;;;;3.83;3.30;;;9.80;1.00;;;;;;7375308;19;20029;-71
2023/12/29 03:10:36;;;;;;;5.68;3.40;;;9.70;1.00;;;;;;7376116;19;20010;-71
2023/12/29 03:13:06;;;;;;;4.75;3.75;;;9.70;1.00;;;;;;7373198;19;20010;-71
2023/12/29 03:15:37;;;;;;;3.47;3.17;;;9.70;1.00;;;;;;7375183;19;20070;-71
2023/12/29 03:18:07;;;;;;;4.10;3.20;;;9.70;1.00;;;;;;7375063;19;20014;-71
2023/12/29 03:20:37;;;;;;;5.75;3.13;;;9.70;1.00;;;;;;7375202;19;20014;-70
2023/12/29 03:23:07;;;;;;;4.55;3.42;;;9.70;1.00;;;;;;7374746;19;20393;-71
2023/12/29 03:25:40;;;;;;;3.75;3.35;;;9.70;1.00;;;;;;7373993;19;20006;-71
2023/12/29 03:28:10;;;;;;;5.43;3.38;;;9.60;1.00;;;;;;7378594;19;20006;-71
2023/12/29 03:30:40;;;;;;;3.75;3.35;;;9.60;1.00;;;;;;7382020;19;20031;-71
2023/12/29 03:33:10;;;;;;;5.15;3.22;;;9.60;1.00;;;;;;7381376;19;20329;-71
2023/12/29 03:35:40;;;;;;;3.65;3.25;;;9.60;1.00;;;;;;7381694;19;22970;-71
2023/12/29 03:38:10;;;;;;;4.13;3.30;;;9.60;1.00;;;;;;7380470;19;20490;-70
2023/12/29 03:40:43;;;;;;;4.93;3.47;;;9.60;1.00;;;;;;7380003;19;20035;-71
2023/12/29 03:43:13;;;;;;;3.50;2.95;;;9.60;1.00;;;;;;7381155;19;20084;-71
2023/12/29 03:45:43;;;;;;;5.93;3.47;;;9.60;1.00;;;;;;7380675;19;20036;-71
2023/12/29 03:48:16;;;;;;;6.82;3.70;;;9.60;1.00;;;;;;7380722;19;20364;-70
2023/12/29 03:50:46;;;;;;;3.42;3.13;;;9.60;1.00;;;;;;7381364;19;20010;-70
2023/12/29 03:53:19;;;;;;;3.35;3.05;;;9.60;1.00;;;;;;7380677;19;20416;-71
2023/12/29 03:55:52;;;;;;;5.72;3.58;;;9.50;1.00;;;;;;7381298;19;20015;-70
2023/12/29 03:58:22;;;;;;;4.10;3.65;;;9.50;1.00;;;;;;7380305;19;20015;-70
2023/12/29 04:00:52;;;;;;;4.60;3.67;;;9.50;1.00;;;;;;7378223;19;20393;-70
2023/12/29 04:03:22;;;;;;;5.22;3.45;;;9.40;1.00;;;;;;7382123;19;20014;-71
2023/12/29 04:05:52;;;;;;;7.05;3.63;;;9.40;1.00;;;;;;7380141;19;20006;-70
2023/12/29 04:08:22;;;;;;;4.35;3.63;;;9.40;1.00;;;;;;7379918;19;20022;-71
2023/12/29 04:10:55;;;;;;;4.45;3.78;;;9.30;1.00;;;;;;7380279;19;20438;-71
2023/12/29 04:13:25;;;;;;;5.82;4.18;;;9.30;1.00;;;;;;7380131;19;20002;-71
2023/12/29 04:15:55;;;;;;;6.88;4.97;;;9.20;1.00;;;;;;7376986;19;20017;-70
2023/12/29 04:18:26;;;;;;;5.50;3.95;;;9.10;1.00;;;;;;7376962;19;20038;-71
2023/12/29 04:20:57;;;;;;;5.05;3.90;;;9.00;1.00;;;;;;7378545;19;20014;-70
2023/12/29 04:23:28;;;;;;;5.32;4.38;;;9.00;1.00;;;;;;7378456;19;20019;-71
2023/12/29 04:26:02;;;;;;;7.72;4.70;;;8.90;1.00;;;;;;7377020;19;20026;-71
2023/12/29 04:28:32;;;;;;;4.18;3.72;;;9.00;1.00;;;;;;7374731;19;20400;-72
2023/12/29 04:31:03;;;;;;;6.20;4.53;;;9.00;1.00;;;;;;7380492;19;20006;-70
2023/12/29 04:33:34;;;;;;;5.13;3.50;;;8.90;1.00;;;;;;7381670;19;20007;-70
2023/12/29 04:36:05;;;;;;;3.95;3.55;;;9.00;1.00;;;;;;7378076;19;20082;-70
2023/12/29 04:38:36;;;;;;;5.43;4.00;;;9.00;1.00;;;;;;7377522;19;20006;-71
2023/12/29 04:41:10;;;;;;;4.15;3.53;;;9.00;1.00;;;;;;7374976;19;20034;-72
2023/12/29 04:43:40;;;;;;;3.58;3.28;;;9.10;1.00;;;;;;7379309;19;20016;-71
2023/12/29 04:46:10;;;;;;;5.43;3.30;;;9.10;1.00;;;;;;7379528;19;20021;-71
2023/12/29 04:48:40;;;;;;;4.72;3.28;;;9.10;1.00;;;;;;7378473;19;20034;-71
2023/12/29 04:51:10;;;;;;;5.10;3.63;;;9.10;1.00;;;;;;7378596;19;20006;-71
2023/12/29 04:53:40;;;;;;;4.65;3.50;;;9.10;1.00;;;;;;7381292;19;20007;-71
2023/12/29 04:56:13;;;;;;;4.10;3.25;;;9.10;1.00;;;;;;7374343;19;20112;-71
2023/12/29 04:58:43;;;;;;;3.25;2.88;;;9.10;1.00;;;;;;7376412;19;20007;-71
2023/12/29 05:01:13;;;;;;;3.53;2.95;;;9.20;1.00;;;;;;7376634;19;20012;-72
2023/12/29 05:03:44;;;;;;;3.55;3.08;;;9.10;1.00;;;;;;7377741;19;20003;-71
2023/12/29 05:06:14;;;;;;;5.90;3.00;;;9.10;1.00;;;;;;7378061;19;20019;-71
2023/12/29 05:08:44;;;;;;;5.82;3.53;;;9.20;1.00;;;;;;7377734;19;20014;-71
2023/12/29 05:11:16;;;;;;;15.93;9.55;;;9.20;1.00;;;;;;7378188;19;20045;-71
2023/12/29 05:13:46;;;;;;;5.78;4.15;;;9.20;1.00;;;;;;7377251;19;20010;-71
2023/12/29 05:16:17;;;;;;;6.20;3.80;;;9.10;2.90;;;;;;7377466;19;20014;-72
2023/12/29 05:18:47;;;;;;;4.03;3.55;;;9.10;7.80;;;;;;7377560;19;20018;-72
2023/12/29 05:21:18;;;;;;;3.75;2.90;;;9.10;13.80;;;;;;7378360;19;20002;-71
2023/12/29 05:23:48;;;;;;;4.30;3.53;;;9.10;21.80;;;;;;7379903;19;20014;-72
2023/12/29 05:26:21;;;;;;;3.63;3.30;;;9.00;27.70;;;;;;7377699;19;20338;-72
2023/12/29 05:28:51;;;;;;;4.60;3.58;;;9.00;44.60;;;;;;7378089;19;20022;-72
2023/12/29 05:31:21;;;;;;;3.67;3.28;;;8.90;57.10;;;;;;7379468;19;20015;-73
2023/12/29 05:33:49;;;;;;;4.97;3.58;;;8.90;66.40;;;;;;7378037;19;20022;-71
2023/12/29 05:36:19;;;;;;;3.95;3.55;;;8.90;72.20;;;;;;7377934;19;20062;-71
2023/12/29 05:38:49;;;;;;;4.82;4.15;;;8.90;79.60;;;;;;7377911;19;20002;-72
2023/12/29 05:41:22;;;;;;;4.63;3.85;;;8.90;93.50;;;;;;7377959;19;20055;-72
2023/12/29 05:43:52;;;;;;;4.32;3.70;;;8.80;99.90;;;;;;7377763;19;20033;-72
2023/12/29 05:46:22;;;;;;;4.68;4.00;;;8.80;99.90;;;;;;7378426;19;20094;-72
2023/12/29 05:48:53;;;;;;;5.53;3.67;;;8.80;99.90;;;;;;7378121;19;20010;-71
2023/12/29 05:51:25;;;;;;;6.28;3.70;;;8.80;99.90;;;;;;7378534;19;20006;-71
2023/12/29 05:53:55;;;;;;;5.18;3.80;;;8.80;99.90;;;;;;7378600;19;20003;-71
2023/12/29 05:56:28;;;;;;;5.65;3.83;;;8.80;99.90;;;;;;7375304;19;20010;-71
2023/12/29 05:58:58;;;;;;;4.32;3.65;;;8.80;99.90;;;;;;7376862;19;20007;-70
2023/12/29 06:01:28;;;;;;;4.75;4.10;;;8.80;99.90;;;;;;7377898;19;20007;-71
2023/12/29 06:03:58;;;;;;;4.50;4.10;;;8.80;99.90;;;;;;7377458;19;20471;-71
2023/12/29 06:06:29;;;;;;;4.25;3.53;;;8.80;99.90;;;;;;7378393;19;20036;-71
2023/12/29 06:08:59;;;;;;;5.85;3.70;;;8.70;99.90;;;;;;7377372;19;20021;-71
2023/12/29 06:11:32;;;;;;;5.25;4.15;;;8.80;99.90;;;;;;7376805;19;20006;-71
2023/12/29 06:14:02;;;;;;;5.95;4.18;;;8.70;99.90;;;;;;7377516;19;20035;-71
2023/12/29 06:16:33;;;;;;;4.38;3.97;;;8.60;99.90;;;;;;7378285;19;20014;-71
2023/12/29 06:19:03;;;;;;;4.75;3.95;;;8.60;99.90;;;;;;7378110;19;20108;-72
2023/12/29 06:21:34;;;;;;;4.78;4.30;;;8.50;99.90;;;;;;7378601;19;20014;-71
2023/12/29 06:24:04;;;;;;;7.53;5.03;;;8.50;99.90;;;;;;7378348;19;20011;-71
2023/12/29 06:26:41;;;;;;;4.35;3.95;;;8.40;99.90;;;;;;7376978;19;20459;-70
2023/12/29 06:29:11;;;;;;;6.88;5.00;;;8.40;99.90;;;;;;7376426;19;20029;-71
2023/12/29 06:31:43;;;;;;;4.97;4.47;;;8.30;99.90;;;;;;7376584;19;20007;-71
2023/12/29 06:34:14;;;;;;;6.10;4.32;;;8.30;99.90;;;;;;7377518;19;20392;-71
2023/12/29 06:36:44;;;;;;;6.30;4.28;;;8.30;99.90;;;;;;7377600;19;20018;-72
2023/12/29 06:39:14;;;;;;;7.05;4.50;;;8.20;99.90;;;;;;7376775;19;20018;-70
2023/12/29 06:41:47;;;;;;;8.20;5.07;;;8.20;99.90;;;;;;7378915;19;20002;-71
2023/12/29 06:44:17;;;;;;;6.68;4.90;;;8.20;99.90;;;;;;7380939;19;20010;-72
2023/12/29 06:46:47;;;;;;;5.65;4.53;;;8.10;99.90;;;;;;7381956;19;20678;-73
2023/12/29 06:49:17;;;;;;;5.22;4.72;;;8.10;99.90;;;;;;7377613;19;20020;-70
2023/12/29 06:51:48;;;;;;;6.15;4.55;;;8.10;99.90;;;;;;7376401;19;20018;-70
2023/12/29 06:54:18;;;;;;;7.70;4.60;;;8.10;99.90;;;;;;7375539;19;20020;-70
2023/12/29 06:56:51;;;;;;;6.78;4.68;;;8.10;99.90;;;;;;7376909;19;20028;-71
2023/12/29 06:59:22;;;;;;;4.95;4.07;;;8.20;99.90;;;;;;7373857;19;20019;-72
2023/12/29 07:01:52;;;;;;;5.63;4.43;;;8.30;99.90;;;;;;7377141;19;20108;-71
2023/12/29 07:04:22;;;;;;;6.22;4.00;;;8.40;99.90;;;;;;7382138;19;20006;-71
2023/12/29 07:06:52;;;;;;;4.22;3.83;;;8.50;99.90;;;;;;7383454;19;20373;-71
2023/12/29 07:09:22;;;;;;;5.53;3.75;;;8.50;99.90;;;;;;7382778;19;20015;-72
2023/12/29 07:11:55;;;;;;;4.80;3.92;;;8.60;99.90;;;;;;7383643;19;20079;-72
2023/12/29 07:14:25;;;;;;;5.15;4.40;;;8.60;99.90;;;;;;7381993;19;20075;-71
2023/12/29 07:16:55;;;;;;;4.00;3.60;;;8.70;99.90;;;;;;7382759;19;20017;-72
2023/12/29 07:19:27;;;;;;;5.10;3.67;;;8.70;99.90;;;;;;7382775;19;20021;-71
2023/12/29 07:21:57;;;;;;;5.10;3.63;;;8.80;99.90;;;;;;7383118;19;20014;-71
2023/12/29 07:24:28;;;;;;;4.07;3.17;;;8.90;99.90;;;;;;7382177;19;20007;-72
2023/12/29 07:27:01;;;;;;;3.80;3.40;;;8.90;99.90;;;;;;7379425;19;20534;-71
2023/12/29 07:29:31;;;;;;;3.50;3.10;;;9.00;99.90;;;;;;7380375;19;20049;-71
2023/12/29 07:32:02;;;;;;;4.45;3.20;;;9.00;99.90;;;;;;7380560;19;20010;-72
2023/12/29 07:34:32;;;;;;;3.20;2.90;;;9.00;99.90;;;;;;7379843;19;20007;-71
2023/12/29 07:37:03;;;;;;;4.63;3.40;;;8.90;99.80;;;;;;7381202;19;20029;-70
2023/12/29 07:39:33;;;;;;;3.25;2.95;;;8.90;99.90;;;;;;7380061;19;20002;-71
2023/12/29 07:42:06;;;;;;;3.38;2.78;;;9.00;99.90;;;;;;7380187;19;20018;-71
2023/12/29 07:44:36;;;;;;;2.88;2.42;;;9.10;90.80;;;;;;7380091;19;20092;-71
2023/12/29 07:47:07;;;;;;;5.32;2.97;;;9.10;73.70;;;;;;7379200;19;20003;-71
2023/12/29 07:49:37;;;;;;;2.90;2.15;;;9.20;65.30;;;;;;7379880;19;20014;-71
2023/12/29 07:52:07;;;;;;;2.83;2.40;;;9.20;58.20;;;;;;7380127;19;20081;-72
2023/12/29 07:54:37;;;;;;;2.90;2.20;;;9.30;56.30;;;;;;7379598;19;20430;-71
2023/12/29 07:57:10;;;;;;;3.20;2.47;;;9.30;55.00;;;;;;7380049;19;20065;-70
2023/12/29 07:59:40;;;;;;;2.97;2.17;;;9.40;49.10;;;;;;7378750;19;20006;-71
2023/12/29 08:02:10;;;;;;;2.17;1.98;;;9.30;45.20;;;;;;7379884;19;20011;-72
2023/12/29 08:04:40;;;;;;;3.88;2.88;;;9.40;38.80;;;;;;7379155;19;20022;-71
2023/12/29 08:07:10;;;;;;;2.50;2.30;;;9.40;37.50;;;;;;7379823;19;20007;-71
2023/12/29 08:09:41;;;;;;;2.50;2.00;;;9.40;35.50;;;;;;7379171;19;20019;-73
2023/12/29 08:12:13;;;;;;;2.88;2.40;;;9.50;30.70;;;;;;7380655;19;20021;-72
2023/12/29 08:14:43;;;;;;;3.28;2.15;;;9.50;26.50;;;;;;7379189;19;20021;-72
2023/12/29 08:17:13;;;;;;;2.55;2.30;;;9.50;20.60;;;;;;7379456;19;20006;-72
2023/12/29 08:19:43;;;;;;;2.45;2.03;;;9.60;13.80;;;;;;7378695;19;20044;-71
2023/12/29 08:22:13;;;;;;;2.78;2.08;;;9.70;10.60;;;;;;7379860;19;20018;-72
2023/12/29 08:24:44;;;;;;;3.15;2.28;;;9.70;7.90;;;;;;7378422;19;20041;-72
2023/12/29 08:27:25;;;;;;;3.95;2.75;;;9.70;5.70;;;;;;7378447;19;20031;-72
2023/12/29 08:29:55;;;;;;;4.18;3.10;;;9.70;7.80;;;;;;7379051;19;20014;-72
2023/12/29 08:32:25;;;;;;;4.78;2.55;;;9.70;3.50;;;;;;7379589;19;20497;-72
2023/12/29 08:34:55;;;;;;;4.65;2.67;;;9.80;1.00;;;;;;7379559;19;20026;-73
2023/12/29 08:37:25;;;;;;;3.10;2.22;;;9.80;1.00;;;;;;7378611;19;20484;-72
2023/12/29 08:39:55;;;;;;;3.55;2.72;;;9.80;1.00;;;;;;7377811;19;20360;-71
2023/12/29 08:42:30;;;;;;;3.42;2.30;;;9.80;1.00;;;;;;7380377;19;20006;-72
2023/12/29 08:45:03;;;;;;;3.67;2.15;;;9.80;1.00;;;;;;7380165;19;20014;-71
2023/12/29 08:47:35;;;;;;;3.63;2.33;;;9.80;1.00;;;;;;7382410;19;20014;-71
2023/12/29 08:50:06;;;;;;;2.97;2.50;;;9.90;1.00;;;;;;7377892;19;20017;-72
2023/12/29 08:52:37;;;;;;;8.43;5.57;;;9.90;1.00;;;;;;7379539;19;20013;-70
2023/12/29 08:55:08;;;;;;;3.58;2.42;;;9.90;1.00;;;;;;7379696;19;19998;-71
2023/12/29 08:57:41;;;;;;;3.08;2.47;;;9.90;1.00;;;;;;7379651;19;20514;-71
2023/12/29 09:00:12;;;;;;;3.53;2.30;;;9.90;1.00;;;;;;7381018;19;20098;-71
2023/12/29 09:02:43;;;;;;;3.67;2.10;;;10.00;1.00;;;;;;7380513;19;20027;-71
2023/12/29 09:05:13;;;;;;;3.95;2.65;;;9.90;1.00;;;;;;7381257;19;20066;-71
2023/12/29 09:07:43;;;;;;;3.35;2.30;;;10.00;1.00;;;;;;7384878;19;20006;-71
2023/12/29 09:10:14;;;;;;;3.75;2.25;;;10.00;1.00;;;;;;7382685;19;20006;-72
2023/12/29 09:12:47;;;;;;;3.45;2.20;;;10.00;1.00;;;;;;7379160;19;20048;-72
2023/12/29 09:15:17;;;;;;;2.33;2.10;;;10.00;1.00;;;;;;7380330;19;20010;-71
2023/12/29 09:17:47;;;;;;;2.45;2.22;;;10.00;1.00;;;;;;7378947;19;20014;-71
2023/12/29 09:20:18;;;;;;;2.53;1.92;;;10.00;1.00;;;;;;7380358;19;20080;-71
2023/12/29 09:22:48;;;;;;;2.80;2.28;;;10.00;1.00;;;;;;7380085;19;20022;-71
2023/12/29 09:25:18;;;;;;;3.67;2.90;;;10.00;1.00;;;;;;7375450;19;20082;-71
2023/12/29 09:27:52;;;;;;;2.83;2.53;;;10.00;1.00;;;;;;7377173;19;20010;-70
2023/12/29 09:30:22;;;;;;;2.97;2.45;;;10.00;1.00;;;;;;7377525;19;20038;-71
2023/12/29 09:32:52;;;;;;;2.65;2.38;;;10.00;1.00;;;;;;7377536;19;20086;-70
2023/12/29 09:35:22;;;;;;;4.72;2.53;;;10.00;1.00;;;;;;7378005;19;20032;-71
2023/12/29 09:37:53;;;;;;;2.92;2.40;;;10.10;1.00;;;;;;7376820;19;20019;-70
2023/12/29 09:40:23;;;;;;;5.38;2.53;;;10.10;1.00;;;;;;7378277;19;20016;-70
2023/12/29 09:42:56;;;;;;;3.40;2.40;;;10.20;1.00;;;;;;7376998;19;20594;-71
2023/12/29 09:45:27;;;;;;;3.42;2.33;;;10.30;1.00;;;;;;7376496;19;20043;-71
2023/12/29 09:47:59;;;;;;;3.50;2.22;;;10.40;1.00;;;;;;7376118;19;24976;-71
2023/12/29 09:50:30;;;;;;;3.17;2.30;;;10.40;1.00;;;;;;7376484;19;20408;-71
2023/12/29 09:53:01;;;;;;;7.07;2.47;;;10.40;1.00;;;;;;7377514;19;20021;-70
2023/12/29 09:55:31;;;;;;;2.42;2.20;;;10.40;1.00;;;;;;7375457;19;20078;-71
2023/12/29 09:58:04;;;;;;;2.72;2.22;;;10.40;1.00;;;;;;7375227;19;20474;-71
2023/12/29 10:00:35;;;;;;;3.88;1.92;;;10.40;1.00;;;;;;7372597;19;20017;-70
2023/12/29 10:03:07;;;;;;;2.30;1.90;;;10.40;1.00;;;;;;7377790;19;20340;-71
2023/12/29 10:05:37;;;;;;;3.58;2.25;;;10.40;1.00;;;;;;7376323;19;20090;-70
2023/12/29 10:08:10;;;;;;;3.33;1.95;;;10.40;1.00;;;;;;7376855;19;20027;-71
2023/12/29 10:10:44;;;;;;;3.40;1.77;;;10.30;1.00;;;;;;7373320;19;20372;-70
2023/12/29 10:13:18;;;;;;;2.25;1.98;;;10.30;1.00;;;;;;7376195;19;20371;-70
2023/12/29 10:15:56;;;;;;;2.03;1.88;;;10.30;1.00;;;;;;7375668;19;20019;-70
2023/12/29 10:18:36;;;;;;;2.28;1.98;;;10.30;1.00;;;;;;7375090;19;20408;-71
2023/12/29 10:21:20;;;;;;;2.83;2.05;;;10.60;2.00;;;;;;7376019;19;20405;-71
2023/12/29 10:23:55;;;;;;;2.67;2.00;;;10.80;1.00;;;;;;6865176;19;2004315;-71
2023/12/29 10:26:26;;;;;;;2.28;1.88;;;11.00;1.00;;;;;;7374118;19;20402;-70
2023/12/29 10:28:59;;;;;;;3.22;1.95;;;11.10;1.00;;;;;;7376535;19;20602;-71
2023/12/29 10:31:30;;;;;;;2.40;2.00;;;11.10;1.00;;;;;;7378709;19;20015;-71
2023/12/29 10:34:28;;;;;;;3.45;2.45;;;11.10;1.00;;;;;;7376173;19;20017;-71
2023/12/29 10:37:01;;;;;;;2.10;1.83;;;11.20;1.00;;;;;;6868053;19;2004681;-71
2023/12/29 10:39:31;;;;;;;3.78;1.77;;;11.20;1.00;;;;;;7383151;19;20409;-70
2023/12/29 10:42:10;;;;;;;1.90;1.60;;;11.20;1.00;;;;;;7383588;19;20014;-70
2023/12/29 10:44:45;;;;;;;4.93;3.13;;;11.30;1.00;;;;;;7380577;19;20093;-70
2023/12/29 10:47:16;;;;;;;4.05;2.45;;;11.40;1.00;;;;;;7383579;19;20011;-70
2023/12/29 10:49:46;;;;;;;1.63;1.52;;;11.30;1.00;;;;;;7381380;19;20013;-71
2023/12/29 10:52:17;;;;;;;1.60;1.50;;;11.20;1.00;;;;;;7381596;19;20014;-71
2023/12/29 10:54:47;;;;;;;2.22;1.60;;;11.30;1.00;;;;;;7380996;19;20436;-71
2023/12/29 10:57:17;;;;;;;1.60;1.30;;;11.30;1.00;;;;;;7382608;19;20007;-70
2023/12/29 10:59:57;;;;;;;1.30;1.20;;;11.30;1.00;;;;;;7381391;19;20018;-71
2023/12/29 11:02:27;;;;;;;1.33;1.20;;;11.40;1.00;;;;;;7381654;19;20002;-71
2023/12/29 11:05:05;;;;;;;1.38;1.25;;;11.50;1.00;;;;;;7382537;19;20005;-70
2023/12/29 11:07:37;;;;;;;5.30;3.25;;;11.60;1.00;;;;;;7380849;19;20134;-70
2023/12/29 11:10:09;;;;;;;3.85;2.60;;;11.60;1.00;;;;;;7381685;19;20021;-71
2023/12/29 11:12:40;;;;;;;2.10;1.20;;;11.60;1.00;;;;;;7382278;19;20006;-71
2023/12/29 11:15:16;;;;;;;1.50;1.00;;;11.70;1.00;;;;;;7382347;19;20624;-72
2023/12/29 11:17:49;;;;;;;1.05;0.90;;;11.70;1.00;;;;;;7379173;19;20124;-71
2023/12/29 11:20:20;;;;;;;1.10;0.90;;;11.70;1.00;;;;;;7381196;19;20012;-71
2023/12/29 11:22:50;;;;;;;1.17;1.00;;;11.70;1.00;;;;;;7381270;19;20101;-71
2023/12/29 11:25:20;;;;;;;1.00;0.85;;;11.70;1.00;;;;;;7380963;19;20015;-69
2023/12/29 11:27:51;;;;;;;1.10;0.80;;;11.70;1.00;;;;;;7379934;19;20006;-70
2023/12/29 11:30:25;;;;;;;1.45;0.85;;;11.80;1.00;;;;;;7383050;19;20010;-71
2023/12/29 11:33:01;;;;;;;1.13;0.98;;;11.80;1.00;;;;;;7383772;19;20040;-71
2023/12/29 11:35:38;;;;;;;2.55;1.75;;;11.90;1.00;;;;;;7379301;19;20059;-71
2023/12/29 11:38:26;;;;;;;2.08;1.40;;;11.90;1.00;;;;;;7380847;19;22898;-71
2023/12/29 11:41:04;;;;;;;1.85;1.08;;;11.90;1.00;;;;;;7379366;19;20010;-71
2023/12/29 11:43:35;;;;;;;2.90;0.80;;;11.90;1.00;;;;;;7380789;19;20002;-71
2023/12/29 11:46:09;;;;;;;0.98;0.80;;;11.80;1.00;;;;;;7380114;19;20074;-71
2023/12/29 11:48:57;;;;;;;0.97;0.73;;;11.80;1.00;;;;;;7377834;19;20462;-71
2023/12/29 11:51:32;;;;;;;0.90;0.70;;;12.00;1.00;;;;;;7378943;19;20085;-70
2023/12/29 11:54:02;;;;;;;1.42;0.68;;;12.10;1.00;;;;;;7380659;19;20010;-71
2023/12/29 11:56:37;;;;;;;1.27;0.90;;;12.30;1.00;;;;;;7381304;19;20035;-70
2023/12/29 11:59:20;;;;;;;1.23;0.90;;;12.30;1.00;;;;;;7378299;19;20055;-71
2023/12/29 12:01:54;;;;;;;1.05;0.90;;;12.30;1.00;;;;;;7378087;19;20479;-72
2023/12/29 12:04:42;;;;;;;1.15;0.60;;;12.30;1.00;;;;;;7358995;19;20021;-72
2023/12/29 12:07:18;;;;;;;3.85;0.68;;;12.20;1.00;;;;;;7348693;19;20013;-73
2023/12/29 12:09:50;;;;;;;1.67;0.82;;;12.10;1.00;;;;;;7377076;19;20018;-73
2023/12/29 12:12:41;;;;;;;0.63;0.60;;;12.30;1.00;;;;;;7362197;19;20014;-73
2023/12/29 12:15:37;;;;;;;2.45;0.80;;;12.30;1.00;;;;;;7363102;19;20022;-72
2023/12/29 12:18:14;;;;;;;1.63;0.88;;;12.30;1.00;;;;;;6832779;19;2004524;-72
2023/12/29 12:20:45;;;;;;;0.95;0.68;;;12.40;1.00;;;;;;7365401;19;20010;-71
2023/12/29 12:23:21;;;;;;;1.80;1.10;;;12.40;1.00;;;;;;7373199;19;19999;-73
2023/12/29 12:25:59;;;;;;;2.00;1.10;;;12.40;1.00;;;;;;7359446;19;20031;-73
2023/12/29 12:28:32;;;;;;;1.40;0.90;;;12.40;1.00;;;;;;7370511;19;20031;-73
2023/12/29 12:31:10;;;;;;;1.73;0.90;;;12.40;1.00;;;;;;7369394;19;20010;-73
2023/12/29 12:33:43;;;;;;;4.97;3.83;;;12.30;1.00;;;;;;7368580;19;21281;-72
2023/12/29 12:36:15;;;;;;;1.87;1.40;;;12.30;1.00;;;;;;7369940;19;20738;-73
2023/12/29 12:38:54;;;;;;;2.70;1.70;;;12.20;1.00;;;;;;7360816;19;20351;-71
2023/12/29 12:41:26;;;;;;;4.07;1.60;;;12.20;1.00;;;;;;7334211;19;20044;-74
2023/12/29 12:44:07;;;;;;;2.95;0.93;;;12.20;1.00;;;;;;7343875;19;20039;-75
2023/12/29 12:46:42;;;;;;;3.50;1.10;;;12.10;1.00;;;;;;7368473;19;20014;-73
2023/12/29 12:49:15;;;;;;;1.75;1.33;;;12.10;1.00;;;;;;7370267;19;20030;-73
2023/12/29 12:51:46;;;;;;;2.78;0.80;;;12.10;1.00;;;;;;7373457;19;20413;-73
2023/12/29 12:54:21;;;;;;;3.25;0.70;;;12.00;1.00;;;;;;7364377;19;20479;-72
2023/12/29 12:56:52;;;;;;;0.98;0.80;;;12.00;1.00;;;;;;7372872;19;20014;-73
2023/12/29 12:59:22;;;;;;;1.65;0.80;;;11.90;1.00;;;;;;7373387;19;20463;-70
2023/12/29 13:01:53;;;;;;;1.45;1.00;;;12.00;1.00;;;;;;7372043;19;20015;-72
2023/12/29 13:04:26;;;;;;;1.92;0.95;;;12.00;1.00;;;;;;7363119;19;20068;-71
2023/12/29 13:06:58;;;;;;;1.73;1.15;;;12.00;1.00;;;;;;7372099;19;20541;-70
2023/12/29 13:09:29;;;;;;;1.10;0.93;;;12.00;1.00;;;;;;7366291;19;20522;-72
2023/12/29 13:12:11;;;;;;;1.38;1.00;;;12.00;1.00;;;;;;7372189;19;20442;-73
2023/12/29 13:14:42;;;;;;;1.98;1.45;;;12.00;1.00;;;;;;7348366;19;20688;-73
2023/12/29 13:17:17;;;;;;;2.63;1.70;;;12.00;1.00;;;;;;7370682;19;20501;-71
2023/12/29 13:20:00;;;;;;;2.08;1.48;;;12.00;1.00;;;;;;7372927;19;20014;-72
2023/12/29 13:22:32;;;;;;;2.38;1.05;;;12.00;1.00;;;;;;7368761;19;20463;-72
2023/12/29 13:25:02;;;;;;;2.65;1.20;;;12.00;1.00;;;;;;7369543;19;20018;-70